Little River, California
Current Conditions -  °F | °C
As of 1:33 AM on Thursday 18 Dec 2014 (Local Time) from KUKI Reporting Station
Light Rain Light Rain  
Wind Chill: 48°   Ceiling: 2400
Heat Index: 48°   Visibility: 5mi
Dew Point: 46°   Wind: 0mph
Humidity: 93%   Direction: NA
Pressure: 30.06"   Gusts: NA
Location:  39.26°N, 123.75°W
Report Text: KUKI 180933Z AUTO 00000KT 5SM -RA BR FEW004 OVC024 09/08 A3006 RMK AO2 P0001 T00890078
Loading
Personal Weather Stations






























Interactive Weather Map New forecast layout! Learn more

10-Day Weather Forecast

Advertisements
Track Severe Weather on mobile